Time;durP1;ratioP1;P1;durP2;ratioP2;P2;SDS_P1;SDS_P2;PMS_P1;PMS_P2;Temp;Humidity;BMP_temperature;BMP_pressure;BME280_temperature;BME280_humidity;BME280_pressure;Samples;Min_cycle;Max_cycle;Signal;HPM_P1;HPM_P2
2022/03/17 00:00:27;;;;;;;;;6.00;5.75;;;;;12.63;67.29;101663.50;5069329;28;46004;-76
2022/03/17 00:03:17;;;;;;;;;5.50;5.25;;;;;12.21;67.19;101590.53;5068317;28;45328;-77
2022/03/17 00:05:46;;;;;;;;;6.75;6.00;;;;;12.11;67.25;101578.72;5068653;28;44705;-75
2022/03/17 00:08:11;;;;;;;;;7.00;7.00;;;;;12.61;66.93;101661.59;5068473;28;44808;-76
2022/03/17 00:10:38;;;;;;;;;7.50;7.50;;;;;12.58;67.11;101666.78;5067211;28;46192;-89
2022/03/17 00:13:09;;;;;;;;;7.00;5.50;;;;;12.32;66.74;101634.97;5067382;28;44583;-84
2022/03/17 00:16:02;;;;;;;;;7.00;7.00;;;;;12.50;66.90;101663.81;5069069;28;44686;-75
2022/03/17 00:18:33;;;;;;;;;8.00;8.00;;;;;12.09;67.08;101601.47;5069543;28;44681;-76
2022/03/17 00:21:33;;;;;;;;;8.75;8.00;;;;;12.15;66.77;101620.16;5068931;28;46046;-76
2022/03/17 00:23:58;;;;;;;;;10.25;9.25;;;;;12.08;66.68;101615.50;5067823;28;45229;-80
2022/03/17 00:26:28;;;;;;;;;10.25;9.25;;;;;12.17;66.64;101639.59;5068720;28;44582;-78
2022/03/17 00:28:59;;;;;;;;;9.50;9.50;;;;;12.49;66.95;101695.41;5069234;28;44707;-76
2022/03/17 00:31:25;;;;;;;;;15.00;13.25;;;;;12.12;66.83;101638.50;5053809;28;45741;-88
2022/03/17 00:33:50;;;;;;;;;11.00;11.00;;;;;12.31;66.73;101680.59;5048300;28;44847;-86
2022/03/17 00:36:47;;;;;;;;;13.25;12.25;;;;;12.08;66.58;101641.84;5060153;28;44599;-75
2022/03/17 00:39:30;;;;;;;;;11.50;11.00;;;;;11.99;66.91;101650.25;5027604;28;44714;-76
2022/03/17 00:42:17;;;;;;;;;14.25;13.25;;;;;12.09;67.12;101676.16;5028269;28;45107;-80
2022/03/17 00:45:09;;;;;;;;;14.50;14.00;;;;;12.14;67.06;101685.16;5028431;28;45189;-77
2022/03/17 00:48:13;;;;;;;;;17.00;16.00;;;;;11.90;67.25;101654.22;5029088;28;44688;-82
2022/03/17 00:51:10;;;;;;;;;15.00;15.00;;;;;11.88;66.89;101659.41;5033529;28;45089;-76
2022/03/17 00:54:24;;;;;;;;;18.25;16.25;;;;;12.33;67.32;101743.94;5048124;28;46579;-89
2022/03/17 00:56:55;;;;;;;;;14.50;13.25;;;;;12.31;67.41;101743.84;5066858;28;45166;-76
2022/03/17 00:59:42;;;;;;;;;17.50;14.00;;;;;11.90;67.39;101670.91;5067616;28;44751;-75
2022/03/17 01:02:34;;;;;;;;;15.00;14.00;;;;;11.78;67.27;101663.34;5067035;28;45435;-77
2022/03/17 01:05:44;;;;;;;;;16.00;15.00;;;;;11.90;67.41;101675.28;5070145;28;47497;-82
2022/03/17 01:08:42;;;;;;;;;17.25;16.25;;;;;12.25;67.35;101742.69;5071730;28;44957;-76
2022/03/17 01:11:27;;;;;;;;;15.50;14.00;;;;;11.68;67.31;101658.50;5066789;28;45206;-93
2022/03/17 01:14:16;;;;;;;;;14.50;13.75;;;;;12.18;67.60;101754.72;5071645;28;44835;-77
2022/03/17 01:16:46;;;;;;;;;16.25;14.25;;;;;12.15;67.56;101775.66;5065667;28;45787;-91
2022/03/17 01:19:38;;;;;;;;;14.25;14.25;;;;;11.83;67.76;101717.16;5050600;28;44956;-76
2022/03/17 01:22:43;;;;;;;;;20.00;16.25;;;;;11.70;67.65;101698.97;5050717;28;44739;-81
2022/03/17 01:25:48;;;;;;;;;19.75;18.25;;;;;11.72;67.89;101718.34;5061145;28;44813;-76
2022/03/17 01:28:43;;;;;;;;;20.00;17.75;;;;;12.10;67.91;101793.88;5070556;28;46190;-77
2022/03/17 01:31:08;;;;;;;;;17.50;16.00;;;;;12.08;67.93;101790.28;5070714;28;45038;-89
2022/03/17 01:33:54;;;;;;;;;19.50;19.50;;;;;12.07;68.16;101803.41;5070927;28;44736;-75
2022/03/17 01:36:43;;;;;;;;;17.50;16.00;;;;;11.76;67.97;101751.00;5070168;28;45206;-76
2022/03/17 01:39:23;;;;;;;;;20.75;19.25;;;;;12.02;67.87;101805.84;5069727;28;45768;-76
2022/03/17 01:42:18;;;;;;;;;20.25;17.75;;;;;11.60;68.02;101725.72;5071222;28;45207;-76
2022/03/17 01:45:29;;;;;;;;;17.75;16.50;;;;;12.01;68.21;101800.47;5071407;28;44799;-76
2022/03/17 01:48:26;;;;;;;;;20.00;19.25;;;;;11.52;68.53;101709.53;5071131;28;45189;-76
2022/03/17 01:51:18;;;;;;;;;19.25;16.25;;;;;11.60;68.40;101730.97;5047705;28;46023;-76
2022/03/17 01:54:09;;;;;;;;;22.00;20.00;;;;;11.59;68.43;101724.81;5070922;28;44854;-76
2022/03/17 01:57:11;;;;;;;;;16.75;16.00;;;;;11.68;68.27;101733.97;5071986;28;44694;-76
2022/03/17 02:00:28;;;;;;;;;21.00;20.00;;;;;12.08;68.38;101811.38;5071775;28;44715;-76
2022/03/17 02:03:10;;;;;;;;;21.00;19.50;;;;;11.66;68.20;101728.63;5069246;28;46897;-76
2022/03/17 02:05:56;;;;;;;;;18.50;17.50;;;;;12.06;68.24;101802.47;5051150;28;44967;-76
2022/03/17 02:08:38;;;;;;;;;22.25;19.50;;;;;11.66;68.19;101744.41;5050482;28;45127;-76
2022/03/17 02:14:08;;;;;;;;;19.50;18.75;;;;;11.51;68.58;101751.59;5050370;28;44879;-76
2022/03/17 02:17:14;;;;;;;;;21.75;20.75;;;;;11.58;68.50;101766.88;5050096;28;44882;-77
2022/03/17 02:20:33;;;;;;;;;20.00;19.00;;;;;12.02;68.34;101848.00;5049299;28;44592;-76
2022/03/17 02:26:57;;;;;;;;;21.25;20.00;;;;;11.96;68.41;101852.06;5050427;28;44879;-76
2022/03/17 02:29:41;;;;;;;;;21.75;19.25;;;;;11.41;68.46;101755.53;5065171;28;45102;-75
2022/03/17 02:32:36;;;;;;;;;21.25;20.25;;;;;11.98;68.54;101855.69;5070701;28;44756;-76
2022/03/17 02:35:27;;;;;;;;;21.25;18.50;;;;;11.57;68.28;101768.56;5050004;28;44729;-81
2022/03/17 02:38:33;;;;;;;;;18.50;17.50;;;;;11.57;68.29;101770.31;5070916;28;45198;-76
2022/03/17 02:41:29;;;;;;;;;19.25;17.00;;;;;11.95;68.35;101845.00;5047882;28;45104;-76
2022/03/17 02:44:01;;;;;;;;;23.00;21.50;;;;;11.94;68.35;101880.06;5038571;28;45041;-93
2022/03/17 02:46:46;;;;;;;;;21.75;20.25;;;;;11.54;68.24;101818.47;5069255;28;44594;-80
2022/03/17 02:49:30;;;;;;;;;22.25;21.25;;;;;11.83;68.22;101876.94;5068994;28;45389;-76
2022/03/17 02:52:20;;;;;;;;;23.25;21.75;;;;;11.80;68.12;101872.38;5065992;28;45151;-86
2022/03/17 02:54:46;;;;;;;;;21.25;19.50;;;;;11.71;68.29;101865.78;5049990;28;44714;-83
2022/03/17 02:57:51;;;;;;;;;20.25;18.75;;;;;11.71;68.07;101871.94;5030862;28;44772;-87
2022/03/17 03:00:23;;;;;;;;;23.50;21.50;;;;;11.22;68.13;101787.97;5026204;28;47605;-76
2022/03/17 03:03:10;;;;;;;;;19.50;18.50;;;;;11.66;68.24;101880.44;5026854;28;45752;-75
2022/03/17 03:06:03;;;;;;;;;19.00;19.00;;;;;11.63;68.35;101878.59;5042044;28;44803;-76
2022/03/17 03:08:59;;;;;;;;;20.50;18.50;;;;;11.50;68.23;101871.81;5049551;28;44748;-76
2022/03/17 03:12:01;;;;;;;;;21.25;20.50;;;;;11.15;68.36;101806.03;5049487;28;46414;-83
2022/03/17 03:14:55;;;;;;;;;20.25;18.75;;;;;11.61;68.38;101891.66;5044611;28;44993;-74
2022/03/17 03:17:21;;;;;;;;;19.25;18.25;;;;;10.72;68.24;101743.38;5114758;23;47057;-78
2022/03/17 03:20:22;;;;;;;;;20.75;20.00;;;;;11.12;68.31;101817.28;5029169;28;45194;-76
2022/03/17 03:22:49;;;;;;;;;22.75;20.25;;;;;11.47;68.42;101894.44;5028189;28;46186;-77
2022/03/17 03:25:15;;;;;;;;;18.50;18.50;;;;;11.41;68.38;101894.16;5035807;28;46648;-76
2022/03/17 03:28:06;;;;;;;;;21.67;21.33;;;;;11.37;68.36;101907.13;5048699;28;44837;-81
2022/03/17 03:31:06;;;;;;;;;20.25;18.25;;;;;10.52;68.24;101764.31;5029733;28;45211;-76
2022/03/17 03:34:18;;;;;;;;;17.00;16.50;;;;;11.30;68.23;101920.84;5026744;28;45522;-78
2022/03/17 03:39:30;;;;;;;;;21.50;19.75;;;;;11.26;68.08;101928.50;5047896;28;44642;-89
2022/03/17 03:45:39;;;;;;;;;20.50;18.50;;;;;10.88;68.14;101872.19;5014042;28;45118;-75
2022/03/17 03:48:13;;;;;;;;;13.75;13.75;;;;;11.20;68.22;101941.34;5027291;28;45098;-81
2022/03/17 03:50:47;;;;;;;;;19.50;18.00;;;;;11.15;68.11;101949.00;5031254;28;44541;-78
2022/03/17 03:56:55;;;;;;;;;17.75;17.75;;;;;11.06;68.07;101967.84;5027425;28;45482;-75
2022/03/17 03:59:26;;;;;;;;;19.50;18.50;;;;;11.05;68.05;101973.94;5034680;28;45126;-95
2022/03/17 04:02:24;;;;;;;;;20.75;19.25;;;;;10.77;68.05;101924.22;5047453;28;44564;-75
2022/03/17 04:04:58;;;;;;;;;19.00;17.75;;;;;10.71;68.29;101909.88;5048264;28;45390;-75
2022/03/17 04:07:54;;;;;;;;;18.00;15.50;;;;;11.07;67.94;101981.91;5049354;28;46041;-75
2022/03/17 04:10:57;;;;;;;;;24.00;22.00;;;;;11.09;68.08;101998.69;5047492;28;45286;-92
2022/03/17 04:13:25;;;;;;;;;20.25;18.25;;;;;10.55;67.65;101908.16;5048746;28;45855;-76
2022/03/17 04:16:11;;;;;;;;;18.50;18.50;;;;;11.00;67.95;101993.84;5048459;28;44725;-78
2022/03/17 04:18:44;;;;;;;;;24.00;22.00;;;;;10.98;67.83;101991.94;5027973;28;46147;-75
2022/03/17 04:21:24;;;;;;;;;19.25;18.75;;;;;10.95;67.87;102004.94;5046169;28;45139;-74
2022/03/17 04:27:13;;;;;;;;;18.50;17.75;;;;;10.95;67.98;102018.09;5051455;23;67899;-76
2022/03/17 04:30:23;;;;;;;;;20.50;20.00;;;;;10.93;68.09;102020.63;5040776;28;45245;-76
2022/03/17 04:33:19;;;;;;;;;20.00;19.00;;;;;10.75;68.12;101991.63;5028530;28;45247;-87
2022/03/17 04:35:55;;;;;;;;;18.50;18.00;;;;;10.92;68.07;102031.06;5012029;28;44711;-76
2022/03/17 04:38:35;;;;;;;;;22.25;20.50;;;;;10.92;68.21;102026.72;5015484;28;44798;-80
2022/03/17 04:41:01;;;;;;;;;21.50;20.50;;;;;10.35;68.01;101933.38;5029992;28;46890;-94
2022/03/17 04:43:28;;;;;;;;;19.00;18.00;;;;;10.55;68.29;101972.16;5046478;28;44615;-76
2022/03/17 04:46:02;;;;;;;;;20.25;19.50;;;;;10.74;68.27;102026.66;5029992;28;45342;-76
2022/03/17 04:48:28;;;;;;;;;20.25;18.25;;;;;10.41;68.28;101962.59;5012693;28;45078;-76
2022/03/17 04:51:13;;;;;;;;;20.50;18.50;;;;;10.24;68.19;101934.50;5047467;28;45101;-76
2022/03/17 04:54:16;;;;;;;;;22.00;21.75;;;;;10.53;68.27;101980.75;5048087;28;45093;-76
2022/03/17 04:56:47;;;;;;;;;15.00;14.00;;;;;10.99;68.12;102062.16;5047438;28;44582;-76
2022/03/17 05:01:53;;;;;;;;;14.00;13.00;;;;;10.80;67.03;102047.09;5145518;22;74089;-76
2022/03/17 05:05:03;;;;;;;;;12.00;11.50;;;;;10.05;66.75;101908.91;5060211;22;44992;-76
2022/03/17 05:07:47;;;;;;;;;14.25;12.50;;;;;10.48;66.73;101992.75;5042492;28;44669;-76
2022/03/17 05:10:55;;;;;;;;;13.50;12.50;;;;;10.13;66.69;101932.97;5034889;22;44592;-76
2022/03/17 05:14:10;;;;;;;;;14.25;12.50;;;;;10.53;66.79;102012.31;5027862;28;45252;-76
2022/03/17 05:17:18;;;;;;;;;11.25;11.00;;;;;10.49;66.57;102031.34;5026751;28;45319;-76
2022/03/17 05:19:43;;;;;;;;;12.00;11.00;;;;;10.85;66.65;102098.22;5026243;28;44995;-75
2022/03/17 05:22:12;;;;;;;;;10.67;10.00;;;;;10.44;66.64;102031.13;5028590;28;45321;-77
2022/03/17 05:24:58;;;;;;;;;10.00;9.75;;;;;10.32;66.58;102010.31;5026257;28;45497;-76
2022/03/17 05:28:04;;;;;;;;;12.25;10.50;;;;;10.63;66.42;102077.72;5019296;28;44912;-76
2022/03/17 05:30:45;;;;;;;;;5.50;5.50;;;;;10.76;66.39;102111.75;5018659;28;44778;-76
2022/03/17 05:33:31;;;;;;;;;9.00;8.75;;;;;10.75;66.22;102116.94;5014426;28;44755;-76
2022/03/17 05:36:14;;;;;;;;;10.25;9.50;;;;;10.18;66.24;102016.47;5012265;28;46051;-75
2022/03/17 05:39:06;;;;;;;;;9.00;9.00;;;;;10.24;66.67;102037.84;5006743;28;45079;-75
2022/03/17 05:41:51;;;;;;;;;10.75;9.75;;;;;10.52;66.33;102100.78;5003504;28;44762;-75
2022/03/17 05:44:56;;;;;;;;;11.00;10.25;;;;;10.25;66.25;102067.69;5006391;28;44788;-75
2022/03/17 05:47:21;;;;;;;;;9.50;9.50;;;;;10.18;66.53;102060.22;5007722;28;45160;-76
2022/03/17 05:50:29;;;;;;;;;14.75;12.50;;;;;10.17;66.39;102058.44;5010600;28;45015;-75
2022/03/17 05:53:12;;;;;;;;;11.25;10.25;;;;;10.37;66.43;102099.00;5129357;23;46464;-76
2022/03/17 05:56:09;;;;;;;;;8.50;8.50;;;;;10.69;66.37;102159.59;5033218;28;44771;-75
2022/03/17 05:58:57;;;;;;;;;13.00;9.75;;;;;10.26;66.53;102085.25;5050843;28;45541;-75
2022/03/17 06:01:26;;;;;;;;;12.75;12.00;;;;;10.14;66.47;102077.53;5050098;28;45024;-75
2022/03/17 06:03:51;;;;;;;;;10.50;9.00;;;;;10.16;66.37;102091.69;5051211;28;44740;-75
2022/03/17 06:06:49;;;;;;;;;10.00;9.33;;;;;10.62;66.42;102159.13;5049779;28;45121;-75
2022/03/17 06:09:51;;;;;;;;;12.25;10.00;;;;;10.57;66.49;102167.66;5141745;22;45004;-77
2022/03/17 06:12:54;;;;;;;;;9.75;9.00;;;;;10.20;66.66;102114.69;5068152;28;44927;-76
2022/03/17 06:15:39;;;;;;;;;11.00;10.75;;;;;10.14;66.23;102116.03;5050474;28;45014;-75
2022/03/17 06:18:25;;;;;;;;;11.50;9.00;;;;;10.46;66.02;102186.28;5047882;28;44734;-75
2022/03/17 06:21:25;;;;;;;;;6.25;6.25;;;;;10.22;66.00;102172.56;5050811;28;46741;-76
2022/03/17 06:24:33;;;;;;;;;9.25;8.00;;;;;10.34;66.40;102207.47;5034441;28;45050;-76
2022/03/17 06:27:09;;;;;;;;;11.00;8.50;;;;;9.77;66.26;102112.16;5046395;28;45181;-76
2022/03/17 06:29:34;;;;;;;;;9.00;9.00;;;;;10.31;66.46;102213.47;5033968;28;45134;-75
2022/03/17 06:32:01;;;;;;;;;9.00;9.00;;;;;10.33;66.55;102222.34;5039414;28;46746;-76
2022/03/17 06:34:29;;;;;;;;;10.25;10.00;;;;;9.79;66.41;102135.88;5037186;28;45534;-75
2022/03/17 06:36:56;;;;;;;;;10.25;9.50;;;;;10.30;66.32;102223.91;5033926;28;46146;-76
2022/03/17 06:39:21;;;;;;;;;8.75;8.50;;;;;9.81;66.62;102144.75;5035147;28;45522;-92
2022/03/17 06:41:59;;;;;;;;;10.50;10.00;;;;;9.65;66.37;102142.91;5023665;28;45484;-76
2022/03/17 06:44:44;;;;;;;;;7.50;6.75;;;;;10.31;66.25;102255.50;5040594;28;44969;-76
2022/03/17 06:47:14;;;;;;;;;5.25;5.25;;;;;10.30;65.84;102243.19;5021363;28;45203;-76
2022/03/17 06:49:41;;;;;;;;;8.75;7.75;;;;;9.83;65.48;102172.00;5011830;28;45079;-76
2022/03/17 06:52:13;;;;;;;;;7.25;7.00;;;;;9.90;65.07;102192.59;5030922;28;46025;-77
2022/03/17 06:54:40;;;;;;;;;11.00;9.75;;;;;9.96;64.87;102218.31;5031862;28;44982;-94
2022/03/17 06:57:22;;;;;;;;;6.25;6.25;;;;;10.29;65.34;102269.34;5035016;28;45282;-78
2022/03/17 07:00:23;;;;;;;;;8.00;6.25;;;;;9.93;65.17;102213.75;5037479;28;44818;-77
2022/03/17 07:02:57;;;;;;;;;7.50;6.25;;;;;9.80;65.33;102196.38;5029963;28;46591;-76
2022/03/17 07:05:24;;;;;;;;;6.25;5.50;;;;;9.74;64.71;102185.47;5030318;28;45094;-95
2022/03/17 07:07:54;;;;;;;;;6.25;5.75;;;;;9.88;64.55;102219.56;5033158;28;45093;-76
2022/03/17 07:10:41;;;;;;;;;6.00;5.50;;;;;10.27;64.48;102294.66;5025950;28;44998;-76
2022/03/17 07:13:21;;;;;;;;;7.25;7.25;;;;;9.90;64.20;102234.59;5026742;28;46826;-77
2022/03/17 07:15:48;;;;;;;;;7.75;6.00;;;;;9.93;64.31;102236.50;5031051;28;45385;-82
2022/03/17 07:18:14;;;;;;;;;5.25;5.00;;;;;9.72;64.33;102208.13;5044718;28;44785;-94
2022/03/17 07:20:40;;;;;;;;;9.75;8.50;;;;;9.88;64.37;102238.84;5064629;28;44841;-76
2022/03/17 07:23:07;;;;;;;;;9.00;8.00;;;;;10.18;63.96;102288.81;5047096;28;45437;-76
2022/03/17 07:25:37;;;;;;;;;8.00;6.25;;;;;10.34;63.93;102328.34;5031176;28;44905;-76
2022/03/17 07:28:20;;;;;;;;;8.00;6.25;;;;;10.22;63.84;102299.59;5041760;28;44902;-76
2022/03/17 07:31:13;;;;;;;;;8.00;8.00;;;;;9.99;63.94;102261.41;5067197;28;44763;-77
2022/03/17 07:33:39;;;;;;;;;5.75;5.75;;;;;9.98;63.96;102261.31;5033433;28;47495;-81
2022/03/17 07:36:06;;;;;;;;;9.00;8.00;;;;;10.19;63.77;102295.88;5047424;28;45243;-89
2022/03/17 07:38:36;;;;;;;;;8.00;7.50;;;;;10.15;63.00;102280.72;5018011;28;45885;-77
2022/03/17 07:41:04;;;;;;;;;4.25;4.00;;;;;10.16;62.96;102285.19;5013290;28;45262;-76
2022/03/17 07:43:30;;;;;;;;;8.50;8.50;;;;;10.03;62.56;102254.63;5035462;28;45469;-77
2022/03/17 07:45:57;;;;;;;;;6.00;6.00;;;;;10.00;62.83;102250.09;5037435;28;45077;-83
2022/03/17 07:48:22;;;;;;;;;5.00;5.00;;;;;10.11;62.79;102265.63;5024915;28;45278;-94
2022/03/17 07:50:50;;;;;;;;;8.00;5.00;;;;;10.62;62.81;102361.59;5021323;28;45542;-77
2022/03/17 07:53:16;;;;;;;;;7.75;7.75;;;;;10.63;62.60;102360.75;5014495;28;45525;-86
2022/03/17 07:55:54;;;;;;;;;5.75;5.00;;;;;10.62;62.26;102373.00;5026922;28;46330;-76
2022/03/17 07:58:24;;;;;;;;;5.25;5.25;;;;;10.63;62.36;102359.03;5026692;28;45064;-88
2022/03/17 08:00:55;;;;;;;;;6.25;6.25;;;;;10.17;62.11;102302.75;5032807;28;45846;-77
2022/03/17 08:03:21;;;;;;;;;9.25;8.25;;;;;10.73;62.00;102376.28;5010919;28;47069;-76
2022/03/17 08:05:47;;;;;;;;;9.00;7.75;;;;;10.47;62.31;102328.31;5009135;28;45685;-76
2022/03/17 08:08:17;;;;;;;;;7.75;6.00;;;;;10.27;61.96;102285.03;5026875;28;45457;-76
2022/03/17 08:10:42;;;;;;;;;6.00;6.00;;;;;9.99;61.74;102237.75;5027465;28;45135;-76
2022/03/17 08:13:09;;;;;;;;;7.25;7.25;;;;;10.56;61.75;102331.47;5027255;28;45727;-76
2022/03/17 08:15:41;;;;;;;;;8.50;8.00;;;;;10.55;61.47;102329.69;5028062;28;45405;-77
2022/03/17 08:18:07;;;;;;;;;7.00;5.75;;;;;10.57;61.60;102338.56;5028679;28;45247;-77
2022/03/17 08:20:38;;;;;;;;;9.50;8.50;;;;;10.56;61.81;102346.34;5028692;28;45238;-76
2022/03/17 08:23:03;;;;;;;;;8.25;8.25;;;;;10.54;61.60;102335.75;5028113;28;45645;-76
2022/03/17 08:25:29;;;;;;;;;9.50;9.50;;;;;10.79;61.48;102392.44;5010346;28;45232;-77
2022/03/17 08:27:55;;;;;;;;;8.75;8.75;;;;;10.48;61.25;102331.84;5027865;28;45158;-76
2022/03/17 08:30:21;;;;;;;;;10.25;10.00;;;;;10.48;61.50;102316.06;5028353;28;45010;-77
2022/03/17 08:32:46;;;;;;;;;10.25;9.00;;;;;10.96;61.32;102409.22;5028367;28;45672;-77
2022/03/17 08:35:13;;;;;;;;;7.25;7.25;;;;;10.99;61.26;102404.16;5027918;28;45159;-76
2022/03/17 08:37:42;;;;;;;;;10.50;10.00;;;;;10.98;61.21;102404.94;5026868;28;45086;-76
2022/03/17 08:40:10;;;;;;;;;10.75;9.75;;;;;10.73;61.07;102350.88;5027332;28;45445;-76
2022/03/17 08:42:36;;;;;;;;;9.50;6.75;;;;;10.71;60.89;102360.41;5026332;28;45895;-76
2022/03/17 08:49:18;;;;;;;;;22.75;21.50;;;;;11.03;61.14;102416.66;5028759;28;45161;-76
2022/03/17 08:50:32;;;;;;;;;9.00;8.25;;;;;11.28;60.72;102469.94;5008192;28;45415;-76
2022/03/17 08:52:58;;;;;;;;;9.75;9.50;;;;;11.13;60.76;102447.97;5008318;28;45369;-76
2022/03/17 08:55:23;;;;;;;;;10.00;9.50;;;;;10.99;60.62;102410.31;5008403;28;45493;-77
2022/03/17 08:57:49;;;;;;;;;10.75;10.00;;;;;11.21;60.59;102457.22;5008108;28;45126;-76
2022/03/17 09:00:15;;;;;;;;;10.50;9.25;;;;;10.75;60.58;102379.94;5006688;28;45406;-77
2022/03/17 09:02:44;;;;;;;;;10.00;10.00;;;;;10.89;60.85;102396.53;4994439;28;47484;-80
2022/03/17 09:05:10;;;;;;;;;11.00;7.75;;;;;11.28;60.53;102458.47;4991448;28;45654;-94
2022/03/17 09:07:36;;;;;;;;;11.00;10.00;;;;;10.99;60.27;102406.78;5013314;28;44828;-76
2022/03/17 09:10:02;;;;;;;;;10.75;10.25;;;;;11.53;59.89;102493.38;5016536;28;44967;-93
2022/03/17 09:12:29;;;;;;;;;8.00;8.00;;;;;11.44;59.52;102484.00;5019840;28;45430;-77
2022/03/17 09:14:55;;;;;;;;;9.50;9.25;;;;;11.26;59.46;102434.72;5018267;28;45397;-88
2022/03/17 09:17:24;;;;;;;;;12.50;11.50;;;;;11.68;59.63;102493.34;5003778;28;44979;-80
2022/03/17 09:19:50;;;;;;;;;10.50;10.50;;;;;11.24;59.11;102409.16;5018996;28;44827;-76
2022/03/17 09:22:26;;;;;;;;;8.25;7.75;;;;;11.77;59.15;102492.94;5031562;28;45157;-81
2022/03/17 09:24:51;;;;;;;;;12.50;11.00;;;;;11.79;59.22;102496.59;5038500;28;45177;-91
2022/03/17 09:27:17;;;;;;;;;12.00;11.00;;;;;11.85;59.09;102505.78;5035331;28;45241;-77
2022/03/17 09:29:43;;;;;;;;;10.75;10.50;;;;;11.43;58.87;102430.47;5045130;28;45172;-76
2022/03/17 09:32:14;;;;;;;;;10.00;10.00;;;;;11.53;58.60;102440.69;5041764;28;45241;-76
2022/03/17 09:34:42;;;;;;;;;12.25;9.00;;;;;11.12;58.49;102380.38;5037537;28;46031;-89
2022/03/17 09:37:07;;;;;;;;;6.50;6.00;;;;;11.53;58.58;102450.31;5035614;28;45907;-92
2022/03/17 09:39:47;;;;;;;;;13.00;11.00;;;;;11.65;58.21;102465.91;5036530;28;45182;-77
2022/03/17 09:42:15;;;;;;;;;11.00;10.00;;;;;11.52;58.16;102441.50;5029512;28;46248;-79
2022/03/17 09:45:00;;;;;;;;;10.25;10.25;;;;;11.84;58.21;102496.06;5043216;28;45171;-80
2022/03/17 09:47:35;;;;;;;;;11.00;10.50;;;;;11.63;57.84;102460.56;5041662;28;44992;-78
2022/03/17 09:50:26;;;;;;;;;11.50;11.25;;;;;11.62;57.83;102458.72;5043964;28;45177;-76
2022/03/17 09:52:54;;;;;;;;;14.00;13.75;;;;;11.66;57.80;102463.38;5011296;28;47403;-76
2022/03/17 09:55:22;;;;;;;;;12.25;11.75;;;;;11.74;57.89;102466.47;5031392;28;45326;-77
2022/03/17 09:57:47;;;;;;;;;14.25;13.50;;;;;11.67;57.72;102441.47;5028672;28;44849;-88
2022/03/17 10:00:15;;;;;;;;;12.50;12.00;;;;;11.84;57.26;102477.63;5041156;28;45139;-86
2022/03/17 10:02:41;;;;;;;;;14.00;13.25;;;;;12.02;57.18;102506.78;5032677;28;45731;-91
2022/03/17 10:05:08;;;;;;;;;12.00;10.75;;;;;11.59;56.99;102427.88;5016577;28;45656;-87
2022/03/17 10:07:35;;;;;;;;;10.75;10.25;;;;;12.18;56.96;102544.53;5033638;28;45440;-76
2022/03/17 10:10:01;;;;;;;;;12.00;10.75;;;;;12.14;57.10;102551.34;5033455;28;45251;-87
2022/03/17 10:12:30;;;;;;;;;12.25;10.75;;;;;12.02;57.18;102524.28;5033338;28;45881;-88
2022/03/17 10:14:56;;;;;;;;;11.00;11.00;;;;;11.81;57.07;102482.69;5032490;28;45381;-89
2022/03/17 10:17:39;;;;;;;;;14.75;12.50;;;;;12.22;56.95;102555.34;5016302;28;45212;-87
2022/03/17 10:20:25;;;;;;;;;13.00;13.00;;;;;12.28;56.87;102553.03;5030543;28;45027;-90
2022/03/17 10:22:56;;;;;;;;;12.00;12.00;;;;;12.33;57.12;102555.94;5034101;28;45970;-87
2022/03/17 10:25:24;;;;;;;;;13.50;12.25;;;;;11.99;57.15;102498.69;5031561;28;45595;-86
2022/03/17 10:27:51;;;;;;;;;16.00;14.50;;;;;12.00;56.87;102496.94;5033938;28;44939;-81
2022/03/17 10:30:34;;;;;;;;;14.75;11.75;;;;;11.98;56.75;102485.44;5030202;28;45041;-86
2022/03/17 10:33:15;;;;;;;;;7.25;7.00;;;;;12.54;56.64;102579.97;5009264;28;48087;-82
2022/03/17 10:35:49;;;;;;;;;12.75;11.75;;;;;12.58;56.57;102574.94;5013474;28;45188;-87
2022/03/17 10:38:17;;;;;;;;;14.25;12.00;;;;;12.32;56.05;102517.22;5012826;28;45222;-85
2022/03/17 10:40:44;;;;;;;;;9.75;9.00;;;;;12.61;56.23;102571.56;5013800;28;45125;-82
2022/03/17 10:43:14;;;;;;;;;11.25;11.00;;;;;12.33;56.33;102519.03;5013026;28;45783;-83
2022/03/17 10:45:40;;;;;;;;;12.00;12.00;;;;;12.68;56.39;102581.66;5011882;28;45701;-88
2022/03/17 10:48:06;;;;;;;;;12.75;10.50;;;;;12.21;56.11;102506.06;5026471;28;45090;-78
2022/03/17 10:50:38;;;;;;;;;12.50;12.25;;;;;12.66;56.06;102578.03;5013568;28;45296;-87
2022/03/17 10:53:04;;;;;;;;;12.25;11.00;;;;;12.65;55.70;102581.47;5030996;28;45649;-83
2022/03/17 10:55:31;;;;;;;;;12.75;11.50;;;;;12.39;55.60;102536.09;5031628;28;45082;-81
2022/03/17 10:58:13;;;;;;;;;9.25;8.25;;;;;12.59;55.25;102570.59;5023550;28;45447;-89
2022/03/17 11:01:04;;;;;;;;;16.25;15.25;;;;;12.72;55.56;102596.84;5033465;28;45073;-83
2022/03/17 11:03:30;;;;;;;;;13.00;11.25;;;;;12.30;55.37;102517.13;5029865;28;45229;-82
2022/03/17 11:05:57;;;;;;;;;13.25;11.75;;;;;12.25;55.46;102513.31;5033018;28;45582;-86
2022/03/17 11:08:22;;;;;;;;;13.75;13.00;;;;;12.21;55.35;102507.78;5028897;28;45033;-82
2022/03/17 11:10:49;;;;;;;;;13.50;13.25;;;;;12.80;54.96;102608.69;5020879;28;45609;-82
2022/03/17 11:13:14;;;;;;;;;13.25;12.25;;;;;12.81;55.38;102612.28;5021399;28;45585;-76
2022/03/17 11:16:08;;;;;;;;;16.25;16.00;;;;;12.51;55.38;102542.88;5027969;28;45049;-86
2022/03/17 11:18:39;;;;;;;;;12.50;11.75;;;;;12.75;54.71;102586.44;5020848;28;45169;-82
2022/03/17 11:21:31;;;;;;;;;14.75;13.75;;;;;12.91;54.88;102607.59;5032536;28;44971;-87
2022/03/17 11:24:04;;;;;;;;;14.00;13.00;;;;;12.54;54.23;102564.16;5029278;28;45656;-77
2022/03/17 11:26:38;;;;;;;;;17.00;16.00;;;;;12.61;54.47;102585.69;5026285;28;45097;-88
2022/03/17 11:29:13;;;;;;;;;22.00;17.00;;;;;12.33;54.68;102537.50;5019483;28;45298;-85
2022/03/17 11:31:52;;;;;;;;;17.75;16.00;;;;;12.45;55.04;102548.72;5026452;28;45439;-87
2022/03/17 11:34:38;;;;;;;;;18.50;16.50;;;;;12.77;54.86;102597.09;5031925;28;45459;-84
2022/03/17 11:37:14;;;;;;;;;16.50;13.75;;;;;13.00;54.87;102627.34;5030319;28;45044;-86
2022/03/17 11:39:49;;;;;;;;;15.50;14.75;;;;;13.02;54.84;102631.91;5035681;28;45260;-81
2022/03/17 11:42:37;;;;;;;;;13.00;12.50;;;;;12.63;54.52;102552.38;5040277;28;45144;-84
2022/03/17 11:45:14;;;;;;;;;13.75;13.25;;;;;13.06;54.44;102618.06;5034446;28;45807;-84
2022/03/17 11:47:54;;;;;;;;;19.50;18.00;;;;;12.51;54.33;102537.59;5033140;28;45118;-77
2022/03/17 11:50:36;;;;;;;;;17.50;15.75;;;;;13.11;54.64;102636.78;5033330;28;45347;-80
2022/03/17 11:53:20;;;;;;;;;18.75;18.50;;;;;13.09;54.72;102630.50;5032427;28;45098;-78
2022/03/17 11:55:45;;;;;;;;;16.00;15.00;;;;;13.11;54.55;102635.06;5031904;28;45923;-79
2022/03/17 11:58:26;;;;;;;;;15.00;14.67;;;;;13.11;54.47;102620.97;5031277;28;45069;-76
2022/03/17 12:01:02;;;;;;;;;19.25;18.25;;;;;12.38;54.42;102515.81;5034206;28;45191;-76
2022/03/17 12:03:29;;;;;;;;;18.50;18.50;;;;;12.99;54.47;102630.84;5035521;28;45201;-76
2022/03/17 12:06:26;;;;;;;;;16.75;15.75;;;;;13.02;54.13;102645.13;5034171;28;45545;-75
2022/03/17 12:09:01;;;;;;;;;13.75;13.25;;;;;12.61;54.36;102579.47;5020704;28;45526;-77
2022/03/17 12:11:35;;;;;;;;;17.50;16.50;;;;;12.69;54.41;102582.56;5031456;28;45049;-75
2022/03/17 12:14:22;;;;;;;;;18.25;17.00;;;;;13.06;54.27;102640.91;5032480;28;45036;-78
2022/03/17 12:16:51;;;;;;;;;16.00;14.50;;;;;13.03;54.01;102643.38;5034834;28;45943;-78
2022/03/17 12:19:48;;;;;;;;;14.75;14.50;;;;;12.46;53.77;102557.53;5049766;28;45767;-80
2022/03/17 12:22:18;;;;;;;;;15.75;15.25;;;;;12.99;54.03;102641.38;5049031;28;45367;-77
2022/03/17 12:24:50;;;;;;;;;17.75;16.00;;;;;12.96;53.90;102654.44;5052377;28;45279;-84
2022/03/17 12:27:22;;;;;;;;;17.25;16.00;;;;;12.95;53.55;102649.97;5039992;28;46007;-78
2022/03/17 12:29:53;;;;;;;;;16.25;15.75;;;;;12.57;53.47;102575.78;5030793;28;45529;-76
2022/03/17 12:32:20;;;;;;;;;16.25;16.25;;;;;12.93;54.08;102646.34;5032125;28;45035;-76